createdAt,value
2023-02-19T00:01:43.607Z,1.30
2023-02-19T00:04:47.056Z,0.95
2023-02-19T00:07:50.482Z,0.80
2023-02-19T00:10:54.246Z,1.00
2023-02-19T00:13:59.058Z,0.80
2023-02-19T00:17:02.387Z,0.82
2023-02-19T00:20:06.657Z,0.70
2023-02-19T00:23:10.234Z,0.82
2023-02-19T00:26:18.446Z,0.47
2023-02-19T00:29:24.908Z,0.70
2023-02-19T00:32:28.185Z,0.90
2023-02-19T00:35:34.814Z,0.40
2023-02-19T00:38:39.401Z,1.05
2023-02-19T00:41:43.223Z,0.80
2023-02-19T00:44:46.361Z,0.90
2023-02-19T00:47:49.963Z,0.90
2023-02-19T00:50:53.244Z,0.80
2023-02-19T00:53:56.707Z,0.75
2023-02-19T00:57:00.308Z,0.80
2023-02-19T01:00:05.058Z,0.68
2023-02-19T01:03:08.430Z,0.90
2023-02-19T01:06:14.827Z,0.73
2023-02-19T01:09:18.107Z,0.80
2023-02-19T01:12:21.824Z,0.70
2023-02-19T01:15:25.310Z,0.80
2023-02-19T01:18:29.093Z,0.80
2023-02-19T01:21:32.447Z,0.68
2023-02-19T01:24:35.826Z,0.80
2023-02-19T01:27:39.005Z,0.60
2023-02-19T01:30:45.249Z,0.80
2023-02-19T01:33:54.569Z,0.80
2023-02-19T01:36:58.334Z,0.70
2023-02-19T01:40:01.808Z,0.80
2023-02-19T01:43:11.064Z,0.70
2023-02-19T01:46:16.977Z,0.88
2023-02-19T01:49:35.522Z,0.75
2023-02-19T01:52:38.822Z,0.77
2023-02-19T01:55:44.869Z,0.73
2023-02-19T01:58:48.666Z,0.57
2023-02-19T02:01:52.522Z,1.05
2023-02-19T02:05:00.050Z,0.70
2023-02-19T02:08:39.214Z,0.77
2023-02-19T02:11:52.573Z,0.80
2023-02-19T02:14:56.701Z,0.85
2023-02-19T02:18:11.131Z,1.00
2023-02-19T02:21:52.082Z,0.85
2023-02-19T02:25:17.681Z,0.82
2023-02-19T02:28:49.243Z,0.97
2023-02-19T02:32:05.847Z,1.05
2023-02-19T02:35:19.367Z,0.88
2023-02-19T02:38:29.281Z,0.73
2023-02-19T02:41:33.822Z,0.70
2023-02-19T02:44:39.948Z,0.63
2023-02-19T02:47:56.642Z,0.82
2023-02-19T02:51:08.925Z,0.70
2023-02-19T02:54:51.260Z,0.70
2023-02-19T02:57:54.906Z,0.65
2023-02-19T03:01:22.815Z,0.80
2023-02-19T03:05:15.615Z,0.80
2023-02-19T03:08:23.866Z,0.88
2023-02-19T03:11:49.979Z,0.80
2023-02-19T03:15:18.176Z,0.83
2023-02-19T03:18:43.370Z,0.80
2023-02-19T03:21:55.459Z,0.70
2023-02-19T03:25:22.252Z,0.82
2023-02-19T03:28:48.048Z,1.08
2023-02-19T03:32:00.739Z,1.20
2023-02-19T03:35:17.005Z,0.80
2023-02-19T03:38:27.823Z,0.90
2023-02-19T03:41:39.902Z,0.70
2023-02-19T03:45:14.387Z,0.70
2023-02-19T03:48:57.405Z,0.90
2023-02-19T03:52:06.266Z,0.90
2023-02-19T03:55:38.982Z,0.70
2023-02-19T03:58:54.897Z,0.73
2023-02-19T04:02:13.916Z,0.70
2023-02-19T04:05:22.278Z,0.70
2023-02-19T04:08:30.635Z,0.82
2023-02-19T04:11:36.188Z,0.65
2023-02-19T04:14:50.388Z,0.68
2023-02-19T04:18:01.182Z,0.63
2023-02-19T04:21:11.265Z,0.80
2023-02-19T04:24:22.063Z,0.90
2023-02-19T04:27:25.293Z,1.00
2023-02-19T04:30:29.086Z,0.87
2023-02-19T04:33:32.434Z,1.17
2023-02-19T04:36:36.109Z,0.90
2023-02-19T04:39:39.287Z,1.08
2023-02-19T04:42:42.840Z,0.85
2023-02-19T04:45:46.362Z,0.77
2023-02-19T04:48:50.115Z,0.70
2023-02-19T04:51:53.255Z,0.70
2023-02-19T04:54:56.651Z,0.82
2023-02-19T04:58:00.645Z,1.00
2023-02-19T05:01:04.674Z,0.80
2023-02-19T05:04:07.857Z,0.70
2023-02-19T05:07:11.428Z,0.80
2023-02-19T05:10:15.225Z,0.70
2023-02-19T05:13:18.780Z,0.90
2023-02-19T05:16:22.352Z,1.00
2023-02-19T05:19:25.930Z,0.80
2023-02-19T05:22:30.389Z,1.05
2023-02-19T05:25:33.842Z,1.00
2023-02-19T05:28:37.286Z,1.00
2023-02-19T05:31:41.772Z,0.85
2023-02-19T05:34:45.142Z,1.00
2023-02-19T05:37:48.548Z,0.70
2023-02-19T05:40:51.922Z,0.90
2023-02-19T05:43:57.236Z,1.10
2023-02-19T05:47:00.379Z,1.00
2023-02-19T05:50:03.965Z,1.10
2023-02-19T05:53:07.138Z,0.90
2023-02-19T05:56:34.698Z,0.80
2023-02-19T05:59:37.991Z,0.98
2023-02-19T06:02:41.694Z,1.20
2023-02-19T06:05:45.222Z,0.90
2023-02-19T06:08:50.503Z,0.80
2023-02-19T06:11:54.576Z,0.80
2023-02-19T06:14:58.008Z,1.10
2023-02-19T06:18:02.705Z,0.93
2023-02-19T06:21:09.118Z,1.10
2023-02-19T06:24:12.821Z,1.30
2023-02-19T06:27:16.115Z,0.70
2023-02-19T06:30:19.844Z,0.98
2023-02-19T06:33:23.243Z,1.42
2023-02-19T06:36:26.841Z,2.50
2023-02-19T06:39:30.090Z,2.20
2023-02-19T06:42:33.547Z,1.50
2023-02-19T06:45:36.759Z,1.70
2023-02-19T06:48:42.377Z,1.70
2023-02-19T06:51:45.935Z,1.60
2023-02-19T06:54:49.427Z,2.00
2023-02-19T06:57:52.635Z,2.10
2023-02-19T07:00:56.358Z,1.70
2023-02-19T07:03:59.793Z,1.90
2023-02-19T07:07:03.264Z,2.10
2023-02-19T07:10:07.295Z,2.40
2023-02-19T07:13:11.882Z,1.80
2023-02-19T07:16:15.730Z,2.10
2023-02-19T07:19:19.219Z,1.80
2023-02-19T07:22:22.450Z,1.57
2023-02-19T07:25:26.039Z,1.27
2023-02-19T07:28:29.396Z,1.75
2023-02-19T07:31:33.043Z,1.52
2023-02-19T07:34:37.500Z,1.70
2023-02-19T07:37:42.916Z,2.00
2023-02-19T07:40:54.460Z,2.62
2023-02-19T07:43:58.585Z,2.20
2023-02-19T07:47:01.754Z,1.98
2023-02-19T07:50:06.220Z,1.83
2023-02-19T07:53:09.288Z,1.53
2023-02-19T07:56:13.781Z,1.70
2023-02-19T07:59:22.280Z,1.77
2023-02-19T08:02:45.784Z,1.60
2023-02-19T08:05:53.594Z,2.50
2023-02-19T08:08:58.082Z,3.50
2023-02-19T08:12:20.375Z,1.37
2023-02-19T08:15:23.494Z,1.00
2023-02-19T08:18:29.757Z,1.10
2023-02-19T08:21:34.432Z,0.88
2023-02-19T08:24:43.019Z,1.00
2023-02-19T08:27:46.204Z,1.02
2023-02-19T08:30:50.993Z,1.20
2023-02-19T08:33:55.353Z,2.67
2023-02-19T08:37:02.169Z,1.60
2023-02-19T08:40:06.539Z,0.80
2023-02-19T08:43:19.300Z,8.05
2023-02-19T08:46:23.112Z,1.15
2023-02-19T08:49:27.456Z,3.12
2023-02-19T08:52:31.189Z,0.70
2023-02-19T08:55:38.840Z,0.60
2023-02-19T08:58:46.724Z,0.70
2023-02-19T09:01:51.043Z,0.90
2023-02-19T09:04:54.209Z,0.93
2023-02-19T09:07:57.964Z,0.70
2023-02-19T09:11:03.623Z,0.87
2023-02-19T09:14:08.322Z,1.37
2023-02-19T09:17:11.734Z,1.17
2023-02-19T09:20:17.657Z,1.10
2023-02-19T09:23:21.366Z,1.27
2023-02-19T09:26:25.567Z,1.10
2023-02-19T09:29:29.294Z,1.33
2023-02-19T09:32:33.718Z,1.20
2023-02-19T09:35:40.698Z,1.70
2023-02-19T09:38:44.784Z,1.92
2023-02-19T09:41:59.428Z,2.37
2023-02-19T09:45:06.409Z,3.12
2023-02-19T09:48:12.564Z,4.00
2023-02-19T09:51:18.349Z,3.17
2023-02-19T09:54:25.636Z,3.00
2023-02-19T09:57:33.050Z,2.97
2023-02-19T10:00:38.531Z,4.07
2023-02-19T10:03:47.540Z,3.10
2023-02-19T10:06:53.085Z,3.72
2023-02-19T10:10:02.836Z,3.60
2023-02-19T10:13:34.894Z,3.27
2023-02-19T10:16:44.918Z,3.28
2023-02-19T10:19:48.518Z,3.33
2023-02-19T10:23:04.022Z,3.40
2023-02-19T10:26:07.626Z,2.85
2023-02-19T10:29:13.074Z,2.90
2023-02-19T10:32:21.155Z,3.15
2023-02-19T10:35:26.855Z,3.37
2023-02-19T10:38:39.252Z,3.10
2023-02-19T10:41:44.511Z,2.70
2023-02-19T10:44:54.372Z,2.40
2023-02-19T10:48:00.503Z,2.70
2023-02-19T10:51:09.396Z,2.50
2023-02-19T10:54:19.602Z,2.10
2023-02-19T10:57:37.922Z,1.67
2023-02-19T11:00:42.680Z,1.93
2023-02-19T11:03:52.486Z,1.10
2023-02-19T11:06:57.963Z,1.30
2023-02-19T11:10:03.183Z,1.10
2023-02-19T11:13:15.683Z,1.15
2023-02-19T11:16:19.380Z,1.30
2023-02-19T11:19:31.424Z,0.70
2023-02-19T11:22:40.114Z,1.27
2023-02-19T11:25:53.258Z,1.00
2023-02-19T11:28:58.927Z,1.17
2023-02-19T11:32:25.376Z,1.27
2023-02-19T11:35:30.626Z,1.65
2023-02-19T11:38:35.662Z,2.22
2023-02-19T11:42:07.756Z,1.98
2023-02-19T11:45:22.927Z,1.90
2023-02-19T11:49:06.883Z,2.40
2023-02-19T11:52:34.253Z,2.22
2023-02-19T11:55:58.693Z,2.30
2023-02-19T11:59:08.521Z,2.42
2023-02-19T12:02:19.233Z,2.15
2023-02-19T12:05:33.980Z,2.10
2023-02-19T12:09:07.064Z,1.92
2023-02-19T12:12:38.284Z,1.70
2023-02-19T12:16:10.892Z,1.10
2023-02-19T12:19:47.846Z,1.23
2023-02-19T12:23:03.875Z,1.43
2023-02-19T12:26:17.075Z,1.25
2023-02-19T12:29:27.148Z,1.52
2023-02-19T12:33:06.236Z,1.37
2023-02-19T12:36:33.967Z,2.20
2023-02-19T12:39:56.717Z,1.30
2023-02-19T12:43:19.873Z,1.42
2023-02-19T12:46:35.205Z,1.33
2023-02-19T12:49:49.967Z,1.48
2023-02-19T12:53:21.433Z,1.70
2023-02-19T12:56:35.635Z,1.40
2023-02-19T13:00:02.820Z,1.23
2023-02-19T13:03:25.867Z,0.90
2023-02-19T13:06:48.941Z,0.60
2023-02-19T13:10:07.022Z,0.50
2023-02-19T13:13:20.643Z,0.40
2023-02-19T13:16:26.244Z,0.50
2023-02-19T13:19:33.564Z,0.60
2023-02-19T13:23:01.417Z,0.55
2023-02-19T13:26:43.131Z,0.70
2023-02-19T13:30:02.178Z,0.60
2023-02-19T13:33:43.126Z,0.88
2023-02-19T13:36:50.121Z,0.77
2023-02-19T13:39:56.113Z,0.70
2023-02-19T13:43:07.464Z,0.50
2023-02-19T13:46:18.397Z,0.63
2023-02-19T13:49:32.102Z,0.47
2023-02-19T13:52:40.004Z,0.70
2023-02-19T13:55:47.363Z,0.37
2023-02-19T13:59:05.288Z,0.40
2023-02-19T14:02:23.503Z,0.60
2023-02-19T14:06:00.042Z,0.50
2023-02-19T14:09:05.120Z,0.60
2023-02-19T14:12:16.092Z,0.40
2023-02-19T14:15:39.879Z,0.40
2023-02-19T14:18:46.525Z,0.30
2023-02-19T14:21:50.910Z,0.40
2023-02-19T14:24:59.157Z,0.30
2023-02-19T14:28:10.831Z,0.35
2023-02-19T14:31:38.550Z,0.30
2023-02-19T14:34:46.197Z,0.40
2023-02-19T14:37:53.741Z,0.35
2023-02-19T14:40:59.279Z,0.45
2023-02-19T14:44:07.647Z,0.45
2023-02-19T14:47:19.223Z,0.50
2023-02-19T14:50:33.860Z,0.30
2023-02-19T14:53:42.529Z,0.22
2023-02-19T14:56:53.964Z,0.30
2023-02-19T15:00:05.093Z,0.50
2023-02-19T15:03:30.051Z,0.40
2023-02-19T15:06:37.026Z,0.50
2023-02-19T15:09:48.743Z,0.40
2023-02-19T15:13:02.013Z,0.60
2023-02-19T15:16:09.968Z,0.40
2023-02-19T15:19:17.161Z,0.50
2023-02-19T15:22:24.785Z,0.53
2023-02-19T15:25:40.303Z,0.40
2023-02-19T15:28:46.866Z,0.52
2023-02-19T15:31:54.814Z,0.40
2023-02-19T15:35:03.394Z,0.60
2023-02-19T15:38:14.235Z,0.70
2023-02-19T15:41:25.623Z,0.70
2023-02-19T15:44:35.364Z,0.50
2023-02-19T15:47:49.330Z,0.55
2023-02-19T15:51:09.813Z,0.60
2023-02-19T15:54:28.562Z,0.60
2023-02-19T15:57:39.660Z,0.50
2023-02-19T16:00:51.213Z,0.68
2023-02-19T16:04:02.735Z,0.70
2023-02-19T16:07:24.144Z,0.62
2023-02-19T16:10:31.633Z,0.40
2023-02-19T16:16:45.229Z,0.43
2023-02-19T16:19:57.662Z,0.70
2023-02-19T16:23:15.849Z,0.57
2023-02-19T16:26:22.799Z,0.70
2023-02-19T16:29:32.632Z,0.62
2023-02-19T16:32:37.470Z,0.65
2023-02-19T16:35:42.202Z,0.68
2023-02-19T16:39:11.121Z,0.80
2023-02-19T16:42:20.049Z,0.62
2023-02-19T16:45:28.348Z,0.40
2023-02-19T16:48:35.175Z,0.40
2023-02-19T16:51:40.758Z,0.40
2023-02-19T16:54:49.787Z,0.50
2023-02-19T16:57:56.559Z,0.50
2023-02-19T17:01:02.231Z,0.60
2023-02-19T17:04:10.621Z,1.20
2023-02-19T17:07:17.783Z,0.57
2023-02-19T17:10:26.506Z,0.60
2023-02-19T17:13:34.830Z,0.70
2023-02-19T17:16:43.374Z,0.68
2023-02-19T17:19:52.978Z,0.70
2023-02-19T17:22:59.734Z,0.60
2023-02-19T17:26:05.001Z,0.60
2023-02-19T17:29:15.895Z,0.70
2023-02-19T17:32:21.401Z,0.80
2023-02-19T17:35:27.721Z,0.40
2023-02-19T17:38:33.316Z,0.60
2023-02-19T17:41:39.714Z,0.68
2023-02-19T17:44:46.598Z,0.70
2023-02-19T17:47:53.371Z,0.50
2023-02-19T17:51:00.191Z,0.60
2023-02-19T17:54:06.321Z,0.50
2023-02-19T17:57:14.131Z,0.50
2023-02-19T18:00:23.660Z,0.75
2023-02-19T18:03:32.204Z,0.80
2023-02-19T18:06:43.169Z,0.80
2023-02-19T18:09:53.574Z,0.80
2023-02-19T18:13:02.437Z,0.57
2023-02-19T18:16:07.650Z,0.95
2023-02-19T18:19:15.308Z,1.05
2023-02-19T18:22:32.704Z,0.70
2023-02-19T18:28:45.465Z,0.70
2023-02-19T18:31:50.927Z,1.40
2023-02-19T18:35:11.337Z,1.33
2023-02-19T18:38:17.663Z,1.12
2023-02-19T18:41:28.029Z,1.30
2023-02-19T18:44:33.888Z,1.05
2023-02-19T18:47:40.775Z,0.65
2023-02-19T18:50:48.115Z,1.00
2023-02-19T18:53:53.086Z,1.05
2023-02-19T18:57:01.392Z,0.90
2023-02-19T19:00:08.804Z,1.20
2023-02-19T19:03:18.162Z,1.77
2023-02-19T19:06:24.463Z,0.90
2023-02-19T19:09:32.919Z,1.50
2023-02-19T19:12:39.314Z,1.40
2023-02-19T19:15:51.649Z,1.30
2023-02-19T19:18:59.505Z,1.10
2023-02-19T19:22:06.140Z,1.30
2023-02-19T19:25:11.751Z,1.12
2023-02-19T19:28:17.506Z,1.25
2023-02-19T19:31:25.549Z,1.15
2023-02-19T19:34:31.544Z,1.23
2023-02-19T19:37:38.437Z,1.55
2023-02-19T19:40:44.248Z,1.67
2023-02-19T19:43:49.532Z,1.50
2023-02-19T19:46:56.250Z,1.58
2023-02-19T19:50:01.252Z,1.55
2023-02-19T19:53:08.967Z,1.53
2023-02-19T19:56:14.260Z,1.40
2023-02-19T19:59:21.585Z,1.30
2023-02-19T20:02:26.608Z,1.10
2023-02-19T20:05:34.715Z,1.40
2023-02-19T20:08:42.340Z,0.82
2023-02-19T20:11:53.110Z,1.10
2023-02-19T20:14:59.500Z,0.90
2023-02-19T20:18:05.649Z,0.73
2023-02-19T20:21:12.379Z,0.80
2023-02-19T20:24:24.470Z,1.00
2023-02-19T20:27:35.558Z,1.00
2023-02-19T20:30:41.231Z,0.90
2023-02-19T20:33:48.535Z,1.02
2023-02-19T20:36:59.609Z,1.70
2023-02-19T20:40:05.897Z,1.50
2023-02-19T20:43:11.116Z,2.35
2023-02-19T20:46:16.459Z,1.45
2023-02-19T20:49:30.658Z,1.45
2023-02-19T20:52:45.569Z,1.20
2023-02-19T20:55:53.503Z,0.85
2023-02-19T20:58:58.665Z,0.98
2023-02-19T21:02:08.984Z,1.10
2023-02-19T21:05:14.190Z,1.08
2023-02-19T21:08:21.086Z,1.17
2023-02-19T21:11:27.700Z,0.95
2023-02-19T21:14:33.564Z,1.00
2023-02-19T21:17:39.592Z,1.10
2023-02-19T21:20:44.396Z,1.00
2023-02-19T21:23:48.651Z,1.40
2023-02-19T21:26:53.465Z,0.90
2023-02-19T21:29:58.191Z,1.17
2023-02-19T21:33:03.174Z,0.90
2023-02-19T21:36:08.584Z,1.30
2023-02-19T21:39:16.995Z,1.20
2023-02-19T21:42:21.954Z,1.10
2023-02-19T21:45:26.268Z,0.90
2023-02-19T21:48:31.046Z,0.98
2023-02-19T21:51:38.183Z,1.12
2023-02-19T21:54:43.721Z,1.20
2023-02-19T21:57:48.448Z,1.02
2023-02-19T22:00:54.417Z,1.30
2023-02-19T22:03:59.189Z,1.23
2023-02-19T22:07:02.407Z,1.30
2023-02-19T22:10:10.424Z,1.20
2023-02-19T22:13:16.590Z,1.58
2023-02-19T22:16:21.522Z,1.00
2023-02-19T22:19:24.636Z,1.35
2023-02-19T22:22:29.473Z,1.20
2023-02-19T22:25:32.755Z,1.20
2023-02-19T22:28:36.293Z,1.50
2023-02-19T22:31:42.458Z,1.15
2023-02-19T22:34:46.083Z,1.30
2023-02-19T22:37:49.268Z,1.30
2023-02-19T22:40:53.255Z,1.20
2023-02-19T22:43:59.056Z,1.60
2023-02-19T22:47:02.876Z,1.10
2023-02-19T22:50:07.934Z,1.30
2023-02-19T22:53:12.809Z,1.20
2023-02-19T22:56:17.940Z,1.60
2023-02-19T22:59:22.528Z,1.15
2023-02-19T23:02:26.963Z,1.37
2023-02-19T23:05:33.548Z,1.95
2023-02-19T23:08:36.832Z,1.30
2023-02-19T23:11:40.592Z,1.10
2023-02-19T23:14:43.883Z,1.15
2023-02-19T23:17:47.366Z,1.43
2023-02-19T23:20:50.631Z,1.33
2023-02-19T23:23:55.077Z,1.12
2023-02-19T23:27:00.027Z,1.43
2023-02-19T23:30:03.666Z,1.10
2023-02-19T23:33:07.499Z,1.30
2023-02-19T23:36:12.213Z,1.20
2023-02-19T23:39:18.228Z,1.30
2023-02-19T23:42:21.832Z,1.70
2023-02-19T23:45:25.367Z,2.15
2023-02-19T23:48:29.059Z,1.20
2023-02-19T23:51:32.391Z,1.33
2023-02-19T23:54:36.689Z,1.33
2023-02-19T23:57:40.088Z,1.67
